createdAt,value
2019-01-08T00:01:14.420Z,100038.58
2019-01-08T00:06:47.251Z,100009.31
2019-01-08T00:09:33.757Z,100017.17
2019-01-08T00:12:20.548Z,100010.41
2019-01-08T00:14:48.677Z,100010.41
2019-01-08T00:17:35.457Z,100021.52
2019-01-08T00:20:03.066Z,100021.52
2019-01-08T00:22:30.728Z,100015.72
2019-01-08T00:24:58.368Z,100019.70
2019-01-08T00:27:44.850Z,100006.20
2019-01-08T00:30:12.546Z,100005.70
2019-01-08T00:32:41.153Z,100005.43
2019-01-08T00:38:14.403Z,100022.80
2019-01-08T00:40:42.089Z,100018.73
2019-01-08T00:43:28.521Z,100008.48
2019-01-08T00:45:56.182Z,100008.48
2019-01-08T00:48:42.911Z,100006.83
2019-01-08T00:51:10.611Z,100001.38
2019-01-08T00:53:38.289Z,100001.38
2019-01-08T00:56:24.713Z,100006.63
2019-01-08T00:58:52.413Z,100006.63
2019-01-08T01:01:20.029Z,100013.93
2019-01-08T01:04:06.525Z,100009.19
2019-01-08T01:06:34.214Z,100015.01
2019-01-08T01:09:22.053Z,100005.15
2019-01-08T01:11:49.764Z,100005.15
2019-01-08T01:14:17.759Z,100006.71
2019-01-08T01:16:45.397Z,100009.94
2019-01-08T01:19:31.882Z,100003.92
2019-01-08T01:21:59.562Z,99998.64
2019-01-08T01:24:46.326Z,99990.77
2019-01-08T01:27:13.924Z,99990.77
2019-01-08T01:30:00.421Z,99982.27
2019-01-08T01:32:39.827Z,99995.78
2019-01-08T01:34:57.282Z,99987.63
2019-01-08T01:37:43.771Z,99978.06
2019-01-08T01:40:11.380Z,99978.06
2019-01-08T01:42:57.861Z,99979.24
2019-01-08T01:45:44.383Z,99981.53
2019-01-08T01:48:23.731Z,99981.53
2019-01-08T01:50:41.319Z,99974.44
2019-01-08T01:53:08.928Z,99986.46
2019-01-08T01:55:55.407Z,99986.46
2019-01-08T01:58:23.020Z,99984.99
2019-01-08T02:00:50.675Z,99981.09
2019-01-08T02:03:37.179Z,99983.56
2019-01-08T02:06:04.779Z,99983.56
2019-01-08T02:08:32.465Z,99981.08
2019-01-08T02:11:18.925Z,99978.72
2019-01-08T02:13:46.588Z,99979.00
2019-01-08T02:16:33.314Z,99982.10
2019-01-08T02:19:01.019Z,99982.10
2019-01-08T02:21:28.620Z,99980.32
2019-01-08T02:24:15.373Z,99973.27
2019-01-08T02:26:43.065Z,99973.27
2019-01-08T02:29:16.538Z,99972.68
2019-01-08T02:31:58.845Z,99972.68
2019-01-08T02:34:26.438Z,99966.34
2019-01-08T02:36:54.525Z,99966.34
2019-01-08T02:39:41.044Z,99960.27
2019-01-08T02:42:08.710Z,99960.27
2019-01-08T02:44:36.481Z,99965.20
2019-01-08T02:47:23.011Z,99963.87
2019-01-08T02:49:52.360Z,99963.87
2019-01-08T02:52:20.373Z,99953.87
2019-01-08T02:55:06.868Z,99964.17
2019-01-08T02:57:34.563Z,99964.17
2019-01-08T03:00:02.170Z,99970.33
2019-01-08T03:02:48.944Z,99951.06
2019-01-08T03:05:16.574Z,99951.06
2019-01-08T03:08:03.352Z,99950.11
2019-01-08T03:10:30.980Z,99950.11
2019-01-08T03:12:58.662Z,99948.30
2019-01-08T03:15:26.327Z,99939.03
2019-01-08T03:18:12.822Z,99931.58
2019-01-08T03:20:40.483Z,99911.73
2019-01-08T03:23:08.123Z,99917.39
2019-01-08T03:25:54.624Z,99917.39
2019-01-08T03:28:41.088Z,99892.25
2019-01-08T03:31:27.603Z,99892.25
2019-01-08T03:33:55.210Z,99896.59
2019-01-08T03:36:24.801Z,99896.59
2019-01-08T03:39:11.388Z,99898.95
2019-01-08T03:41:58.190Z,99895.08
2019-01-08T03:44:25.813Z,99895.08
2019-01-08T03:47:12.568Z,99873.07
2019-01-08T03:49:40.235Z,99873.07
2019-01-08T03:52:26.932Z,99865.44
2019-01-08T03:54:54.622Z,99865.44
2019-01-08T03:57:22.640Z,99856.17
2019-01-08T03:59:50.237Z,99854.36
2019-01-08T04:02:36.749Z,99854.36
2019-01-08T04:05:04.423Z,99852.58
2019-01-08T04:07:51.186Z,99843.98
2019-01-08T04:10:18.884Z,99843.98
2019-01-08T04:13:06.077Z,99837.95
2019-01-08T04:15:52.511Z,99830.02
2019-01-08T04:18:39.324Z,99827.09
2019-01-08T04:21:06.975Z,99827.09
2019-01-08T04:23:34.668Z,99825.28
2019-01-08T04:26:02.278Z,99820.84
2019-01-08T04:28:48.906Z,99826.51
2019-01-08T04:31:16.572Z,99814.60
2019-01-08T04:33:44.185Z,99799.18
2019-01-08T04:36:11.844Z,99802.59
2019-01-08T04:38:58.335Z,99796.34
2019-01-08T04:41:26.058Z,99796.34
2019-01-08T04:43:53.668Z,99783.86
2019-01-08T04:46:40.190Z,99777.52
2019-01-08T04:49:07.896Z,99774.86
2019-01-08T04:51:35.509Z,99770.99
2019-01-08T04:54:22.018Z,99759.20
2019-01-08T04:56:49.733Z,99759.20
2019-01-08T04:59:17.431Z,99750.31
2019-01-08T05:02:03.969Z,99743.20
2019-01-08T05:04:31.676Z,99743.20
2019-01-08T05:06:59.323Z,99727.59
2019-01-08T05:09:45.814Z,99723.26
2019-01-08T05:12:32.343Z,99728.64
2019-01-08T05:15:18.856Z,99728.64
2019-01-08T05:18:05.281Z,99702.50
2019-01-08T05:20:51.765Z,99699.95
2019-01-08T05:23:38.201Z,99701.40
2019-01-08T05:26:05.978Z,99701.40
2019-01-08T05:28:34.886Z,99703.86
2019-01-08T05:31:02.553Z,99704.27
2019-01-08T05:33:30.159Z,99712.06
2019-01-08T05:36:16.686Z,99699.56
2019-01-08T05:38:44.420Z,99686.31
2019-01-08T05:41:12.110Z,99686.31
2019-01-08T05:43:58.624Z,99673.72
2019-01-08T05:46:26.308Z,99674.12
2019-01-08T05:49:13.056Z,99649.98
2019-01-08T05:51:40.718Z,99657.19
2019-01-08T05:54:08.402Z,99656.78
2019-01-08T05:56:54.833Z,99656.78
2019-01-08T05:59:22.613Z,99657.19
2019-01-08T06:01:50.199Z,99658.97
2019-01-08T06:04:36.724Z,99653.77
2019-01-08T06:07:04.345Z,99667.58
2019-01-08T06:09:32.041Z,99686.29
2019-01-08T06:12:18.555Z,99691.88
2019-01-08T06:14:46.244Z,99681.58
2019-01-08T06:17:28.001Z,99681.58
2019-01-08T06:20:04.280Z,99666.16
2019-01-08T06:22:31.882Z,99666.16
2019-01-08T06:25:18.415Z,99658.53
2019-01-08T06:27:46.391Z,99658.53
2019-01-08T06:30:14.007Z,99648.88
2019-01-08T06:33:00.497Z,99652.75
2019-01-08T06:35:28.198Z,99656.26
2019-01-08T06:37:55.938Z,99665.75
2019-01-08T06:40:42.362Z,99656.41
2019-01-08T06:43:28.843Z,99651.41
2019-01-08T06:45:56.749Z,99651.41
2019-01-08T06:48:24.848Z,99638.93
2019-01-08T06:50:56.229Z,99642.34
2019-01-08T06:53:40.621Z,99647.41
2019-01-08T06:56:08.275Z,99648.64
2019-01-08T06:58:54.782Z,99650.33
2019-01-08T07:01:22.420Z,99656.81
2019-01-08T07:03:50.355Z,99650.61
2019-01-08T07:06:18.379Z,99650.39
2019-01-08T07:09:04.912Z,99649.93
2019-01-08T07:11:32.537Z,99645.97
2019-01-08T07:14:00.171Z,99643.69
2019-01-08T07:16:46.687Z,99643.69
2019-01-08T07:19:14.322Z,99651.03
2019-01-08T07:21:42.234Z,99651.03
2019-01-08T07:24:09.949Z,99645.28
2019-01-08T07:26:37.621Z,99642.15
2019-01-08T07:29:24.126Z,99639.14
2019-01-08T07:31:51.841Z,99637.36
2019-01-08T07:34:38.297Z,99647.16
2019-01-08T07:37:05.983Z,99647.16
2019-01-08T07:39:52.506Z,99630.94
2019-01-08T07:42:20.131Z,99630.94
2019-01-08T07:45:20.828Z,99636.22
2019-01-08T07:47:38.305Z,99632.84
2019-01-08T07:50:06.269Z,99635.27
2019-01-08T07:52:33.881Z,99631.30
2019-01-08T07:55:01.586Z,99631.30
2019-01-08T07:57:48.025Z,99638.28
2019-01-08T08:00:34.534Z,99627.16
2019-01-08T08:03:20.987Z,99627.16
2019-01-08T08:05:48.707Z,99619.86
2019-01-08T08:08:35.144Z,99625.89
2019-01-08T08:11:05.584Z,99625.89
2019-01-08T08:13:52.047Z,99608.11
2019-01-08T08:16:19.729Z,99613.31
2019-01-08T08:19:06.226Z,99613.22
2019-01-08T08:21:33.894Z,99603.00
2019-01-08T08:24:20.359Z,99601.55
2019-01-08T08:26:48.049Z,99588.23
2019-01-08T08:29:15.754Z,99581.53
2019-01-08T08:32:02.204Z,99579.16
2019-01-08T08:34:46.037Z,99579.16
2019-01-08T08:37:32.845Z,99575.44
2019-01-08T08:39:49.299Z,99558.05
2019-01-08T08:42:17.287Z,99550.95
2019-01-08T08:44:47.120Z,99557.00
2019-01-08T08:47:33.557Z,99560.20
2019-01-08T08:50:01.253Z,99560.20
2019-01-08T08:52:28.918Z,99545.61
2019-01-08T08:55:15.425Z,99544.30
2019-01-08T08:57:43.077Z,99544.30
2019-01-08T09:00:10.846Z,99552.09
2019-01-08T09:02:57.349Z,99549.68
2019-01-08T09:05:25.099Z,99549.13
2019-01-08T09:07:53.091Z,99549.13
2019-01-08T09:10:20.675Z,99553.45
2019-01-08T09:12:48.377Z,99553.45
2019-01-08T09:15:34.809Z,99555.33
2019-01-08T09:18:02.527Z,99559.52
2019-01-08T09:20:30.132Z,99557.92
2019-01-08T09:23:16.636Z,99557.10
2019-01-08T09:25:44.260Z,99559.37
2019-01-08T09:28:12.296Z,99551.63
2019-01-08T09:30:58.789Z,99551.73
2019-01-08T09:33:26.767Z,99576.97
2019-01-08T09:35:54.452Z,99576.97
2019-01-08T09:38:22.181Z,99561.52
2019-01-08T09:40:49.931Z,99565.70
2019-01-08T09:43:36.365Z,99564.10
2019-01-08T09:46:04.276Z,99565.16
2019-01-08T09:48:32.037Z,99565.16
2019-01-08T09:51:00.091Z,99557.05
2019-01-08T09:53:27.820Z,99569.73
2019-01-08T09:55:55.493Z,99569.73
2019-01-08T09:58:43.016Z,99571.73
2019-01-08T10:01:10.653Z,99571.73
2019-01-08T10:03:38.624Z,99564.77
2019-01-08T10:06:06.690Z,99564.27
2019-01-08T10:08:34.906Z,99564.27
2019-01-08T10:13:40.860Z,99573.42
2019-01-08T10:16:08.493Z,99573.70
2019-01-08T10:19:08.148Z,99571.42
2019-01-08T10:21:44.562Z,99570.02
2019-01-08T10:24:30.985Z,99570.02
2019-01-08T10:26:58.713Z,99554.62
2019-01-08T10:29:45.253Z,99554.62
2019-01-08T10:32:12.934Z,99559.44
2019-01-08T10:34:40.834Z,99556.67
2019-01-08T10:37:08.575Z,99537.13
2019-01-08T10:39:36.223Z,99537.13
2019-01-08T10:42:04.265Z,99532.12
2019-01-08T10:44:32.179Z,99536.72
2019-01-08T10:47:00.344Z,99518.95
2019-01-08T10:49:46.900Z,99523.56
2019-01-08T10:52:27.676Z,99521.09
2019-01-08T10:55:03.492Z,99502.37
2019-01-08T10:57:31.128Z,99506.51
2019-01-08T11:00:17.618Z,99501.73
2019-01-08T11:02:45.367Z,99505.01
2019-01-08T11:05:32.179Z,99498.77
2019-01-08T11:07:59.816Z,99498.77
2019-01-08T11:10:27.873Z,99507.33
2019-01-08T11:13:14.417Z,99494.47
2019-01-08T11:15:42.492Z,99506.77
2019-01-08T11:18:10.228Z,99494.47
2019-01-08T11:20:56.783Z,99494.47
2019-01-08T11:23:24.814Z,99505.32
2019-01-08T11:25:54.238Z,99497.19
2019-01-08T11:28:40.775Z,99499.70
2019-01-08T11:31:08.498Z,99495.73
2019-01-08T11:33:54.954Z,99491.67
2019-01-08T11:36:22.665Z,99506.95
2019-01-08T11:38:50.633Z,99502.16
2019-01-08T11:41:37.132Z,99502.16
2019-01-08T11:44:05.154Z,99489.27
2019-01-08T11:46:32.838Z,99483.70
2019-01-08T11:49:20.945Z,99473.13
2019-01-08T11:51:48.561Z,99473.13
2019-01-08T11:54:16.553Z,99485.35
2019-01-08T11:57:03.047Z,99488.82
2019-01-08T11:59:30.799Z,99488.82
2019-01-08T12:02:17.217Z,99503.36
2019-01-08T12:04:44.879Z,99508.82
2019-01-08T12:07:14.161Z,99514.16
2019-01-08T12:10:00.702Z,99514.16
2019-01-08T12:12:28.324Z,99504.74
2019-01-08T12:14:58.291Z,99497.84
2019-01-08T12:17:44.803Z,99503.70
2019-01-08T12:20:12.572Z,99507.93
2019-01-08T12:22:59.101Z,99507.93
2019-01-08T12:25:29.538Z,99495.80
2019-01-08T12:27:57.754Z,99497.67
2019-01-08T12:30:44.277Z,99498.73
2019-01-08T12:35:58.618Z,99503.44
2019-01-08T12:38:26.636Z,99509.41
2019-01-08T12:40:54.360Z,99498.86
2019-01-08T12:43:40.855Z,99514.24
2019-01-08T12:48:59.533Z,99500.25
2019-01-08T12:51:27.512Z,99486.20
2019-01-08T12:53:55.240Z,99486.20
2019-01-08T12:56:41.838Z,99488.45
2019-01-08T12:59:09.511Z,99485.77
2019-01-08T13:01:37.181Z,99491.27
2019-01-08T13:04:23.634Z,99465.41
2019-01-08T13:06:51.709Z,99450.59
2019-01-08T13:09:19.376Z,99446.00
2019-01-08T13:12:05.872Z,99446.00
2019-01-08T13:14:33.502Z,99467.48
2019-01-08T13:17:11.215Z,99514.78
2019-01-08T13:19:51.494Z,99514.78
2019-01-08T13:22:19.147Z,99519.91
2019-01-08T13:25:05.636Z,99484.77
2019-01-08T13:27:33.244Z,99500.69
2019-01-08T13:30:01.217Z,99500.69
2019-01-08T13:32:28.840Z,99504.05
2019-01-08T13:35:13.090Z,99506.65
2019-01-08T13:37:47.162Z,99495.70
2019-01-08T13:40:14.940Z,99499.84
2019-01-08T13:45:35.861Z,99492.14
2019-01-08T13:48:03.516Z,99491.58
2019-01-08T13:50:50.006Z,99515.57
2019-01-08T13:53:17.641Z,99516.39
2019-01-08T13:55:45.330Z,99534.81
2019-01-08T13:58:31.761Z,99527.58
2019-01-08T14:00:59.477Z,99534.77
2019-01-08T14:03:27.215Z,99513.12
2019-01-08T14:05:55.127Z,99521.83
2019-01-08T14:08:23.175Z,99516.17
2019-01-08T14:13:32.192Z,99533.23
2019-01-08T14:16:00.071Z,99545.52
2019-01-08T14:18:27.748Z,99545.52
2019-01-08T14:21:14.242Z,99547.35
2019-01-08T14:23:42.042Z,99545.84
2019-01-08T14:26:09.702Z,99536.00
2019-01-08T14:28:56.213Z,99536.00
2019-01-08T14:31:23.845Z,99544.02
2019-01-08T14:33:51.604Z,99548.12
2019-01-08T14:36:39.195Z,99539.64
2019-01-08T14:39:07.041Z,99523.73
2019-01-08T14:41:53.570Z,99521.87
2019-01-08T14:44:21.280Z,99509.25
2019-01-08T14:47:08.137Z,99517.64
2019-01-08T14:49:36.103Z,99517.64
2019-01-08T14:52:03.829Z,99524.52
2019-01-08T14:54:50.319Z,99536.41
2019-01-08T14:57:18.028Z,99544.42
2019-01-08T15:00:04.541Z,99559.94
2019-01-08T15:02:32.199Z,99542.13
2019-01-08T15:05:00.421Z,99542.13
2019-01-08T15:07:42.215Z,99536.05
2019-01-08T15:12:50.679Z,99577.75
2019-01-08T15:15:18.387Z,99583.49
2019-01-08T15:17:46.397Z,99583.49
2019-01-08T15:20:14.161Z,99576.52
2019-01-08T15:22:41.903Z,99578.79
2019-01-08T15:25:28.802Z,99577.69
2019-01-08T15:27:56.445Z,99574.19
2019-01-08T15:30:24.149Z,99573.59
2019-01-08T15:33:10.636Z,99573.59
2019-01-08T15:35:38.268Z,99574.09
2019-01-08T15:38:06.426Z,99582.69
2019-01-08T15:40:52.957Z,99582.70
2019-01-08T15:43:20.652Z,99582.70
2019-01-08T15:45:48.267Z,99573.56
2019-01-08T15:48:34.812Z,99568.58
2019-01-08T15:51:02.481Z,99577.66
2019-01-08T15:53:30.087Z,99575.03
2019-01-08T15:55:57.804Z,99575.03
2019-01-08T15:58:25.506Z,99575.59
2019-01-08T16:00:53.538Z,99563.70
2019-01-08T16:03:21.204Z,99563.70
2019-01-08T16:05:48.916Z,99561.72
2019-01-08T16:08:35.420Z,99564.27
2019-01-08T16:11:03.107Z,99542.57
2019-01-08T16:13:32.546Z,99542.84
2019-01-08T16:16:21.432Z,99527.91
2019-01-08T16:18:49.064Z,99529.48
2019-01-08T16:21:16.687Z,99527.63
2019-01-08T16:24:03.195Z,99536.84
2019-01-08T16:26:45.003Z,99536.84
2019-01-08T16:31:34.859Z,99545.19
2019-01-08T16:34:02.613Z,99545.19
2019-01-08T16:39:23.566Z,99556.98
2019-01-08T16:41:51.307Z,99556.98
2019-01-08T16:44:19.761Z,99547.31
2019-01-08T16:46:47.499Z,99559.75
2019-01-08T16:49:15.318Z,99559.66
2019-01-08T16:52:01.751Z,99589.95
2019-01-08T16:54:29.409Z,99589.95
2019-01-08T16:57:15.902Z,99584.30
2019-01-08T16:59:43.549Z,99570.14
2019-01-08T17:02:30.092Z,99579.20
2019-01-08T17:04:58.119Z,99578.00
2019-01-08T17:07:25.778Z,99580.76
2019-01-08T17:10:12.312Z,99590.03
2019-01-08T17:12:40.392Z,99580.50
2019-01-08T17:15:26.920Z,99580.50
2019-01-08T17:17:54.534Z,99586.44
2019-01-08T17:20:22.285Z,99586.44
2019-01-08T17:23:08.714Z,99571.73
2019-01-08T17:31:03.594Z,99548.73
2019-01-08T17:33:34.084Z,99555.11
2019-01-08T17:36:00.891Z,99555.11
2019-01-08T17:38:28.941Z,99551.06
2019-01-08T17:41:15.841Z,99554.93
2019-01-08T17:43:44.021Z,99554.93
2019-01-08T17:46:30.537Z,99572.03
2019-01-08T17:48:58.169Z,99572.03
2019-01-08T17:51:26.356Z,99594.66
2019-01-08T17:53:54.449Z,99601.26
2019-01-08T17:56:22.552Z,99603.90
2019-01-08T17:58:50.173Z,99613.88
2019-01-08T18:01:36.673Z,99616.52
2019-01-08T18:04:04.441Z,99616.52
2019-01-08T18:06:32.156Z,99624.38
2019-01-08T18:09:18.625Z,99646.46
2019-01-08T18:12:16.933Z,99654.88
2019-01-08T18:14:53.299Z,99654.88
2019-01-08T18:17:20.889Z,99638.85
2019-01-08T18:19:48.822Z,99638.03
2019-01-08T18:22:16.505Z,99652.92
2019-01-08T18:24:44.147Z,99647.92
2019-01-08T18:27:30.653Z,99632.86
2019-01-08T18:29:58.382Z,99632.86
2019-01-08T18:32:44.841Z,99630.75
2019-01-08T18:35:12.489Z,99630.75
2019-01-08T18:37:40.103Z,99622.72
2019-01-08T18:40:26.645Z,99615.59
2019-01-08T18:42:54.422Z,99612.41
2019-01-08T18:45:22.024Z,99630.86
2019-01-08T18:48:08.559Z,99630.58
2019-01-08T18:50:36.190Z,99623.72
2019-01-08T18:53:03.952Z,99623.72
2019-01-08T18:55:50.457Z,99620.59
2019-01-08T18:58:18.418Z,99620.59
2019-01-08T19:00:46.177Z,99620.31
2019-01-08T19:06:08.093Z,99616.94
2019-01-08T19:08:57.016Z,99623.07
2019-01-08T19:11:24.731Z,99623.07
2019-01-08T19:14:11.374Z,99638.11
2019-01-08T19:16:39.055Z,99648.66
2019-01-08T19:19:06.691Z,99636.33
2019-01-08T19:21:53.240Z,99636.33
2019-01-08T19:24:23.660Z,99642.63
2019-01-08T19:27:10.174Z,99642.63
2019-01-08T19:29:37.846Z,99648.39
2019-01-08T19:32:05.580Z,99648.77
2019-01-08T19:34:52.092Z,99650.46
2019-01-08T19:37:19.786Z,99645.11
2019-01-08T19:39:47.438Z,99645.11
2019-01-08T19:42:34.379Z,99643.51
2019-01-08T19:45:01.994Z,99637.38
2019-01-08T19:47:29.696Z,99635.60
2019-01-08T19:50:16.219Z,99641.70
2019-01-08T19:52:43.856Z,99652.55
2019-01-08T19:55:11.492Z,99652.55
2019-01-08T19:58:10.376Z,99676.09
2019-01-08T20:00:27.288Z,99666.39
2019-01-08T20:02:55.199Z,99666.39
2019-01-08T20:05:22.852Z,99668.95
2019-01-08T20:07:50.679Z,99668.95
2019-01-08T20:10:37.182Z,99663.56
2019-01-08T20:13:04.892Z,99663.56
2019-01-08T20:15:32.626Z,99649.05
2019-01-08T20:18:00.665Z,99645.95
2019-01-08T20:20:28.300Z,99654.73
2019-01-08T20:22:58.991Z,99644.72
2019-01-08T20:25:45.515Z,99644.72
2019-01-08T20:28:13.352Z,99635.69
2019-01-08T20:30:59.814Z,99637.09
2019-01-08T20:36:20.440Z,99635.94
2019-01-08T20:39:06.867Z,99632.55
2019-01-08T20:41:54.409Z,99632.55
2019-01-08T20:44:22.031Z,99639.34
2019-01-08T20:47:08.523Z,99644.05
2019-01-08T20:49:36.239Z,99636.50
2019-01-08T20:52:22.701Z,99649.23
2019-01-08T20:57:43.582Z,99641.20
2019-01-08T21:00:11.444Z,99641.20
2019-01-08T21:02:57.927Z,99638.84
2019-01-08T21:05:25.671Z,99640.82
2019-01-08T21:08:24.746Z,99636.48
2019-01-08T21:10:41.525Z,99636.48
2019-01-08T21:13:09.151Z,99623.66
2019-01-08T21:18:25.287Z,99628.36
2019-01-08T21:21:11.740Z,99624.41
2019-01-08T21:23:58.232Z,99639.34
2019-01-08T21:26:44.711Z,99641.41
2019-01-08T21:29:12.388Z,99644.34
2019-01-08T21:31:40.088Z,99644.34
2019-01-08T21:34:26.614Z,99659.69
2019-01-08T21:36:54.258Z,99659.69
2019-01-08T21:39:21.950Z,99634.36
2019-01-08T21:42:08.406Z,99634.36
2019-01-08T21:44:54.929Z,99645.30
2019-01-08T21:47:41.420Z,99645.30
2019-01-08T21:50:09.124Z,99649.71
2019-01-08T21:52:55.588Z,99645.01
2019-01-08T21:55:42.527Z,99653.50
2019-01-08T21:58:28.992Z,99646.70
2019-01-08T22:00:56.711Z,99644.27
2019-01-08T22:03:24.778Z,99644.27
2019-01-08T22:06:04.723Z,99640.02
2019-01-08T22:08:22.308Z,99640.88
2019-01-08T22:10:50.138Z,99642.73
2019-01-08T22:13:36.602Z,99642.73
2019-01-08T22:16:04.218Z,99643.23
2019-01-08T22:21:37.117Z,99629.75
2019-01-08T22:24:23.620Z,99633.14
2019-01-08T22:26:51.572Z,99633.14
2019-01-08T22:29:19.229Z,99624.27
2019-01-08T22:31:47.089Z,99629.47
2019-01-08T22:34:36.216Z,99633.34
2019-01-08T22:37:06.218Z,99643.48
2019-01-08T22:39:34.354Z,99641.25
2019-01-08T22:42:02.043Z,99643.31
2019-01-08T22:44:48.532Z,99631.36
2019-01-08T22:47:35.012Z,99631.36
2019-01-08T22:50:02.928Z,99634.25
2019-01-08T22:52:51.346Z,99634.53
2019-01-08T22:55:37.809Z,99634.53
2019-01-08T22:58:05.411Z,99641.63
2019-01-08T23:00:51.931Z,99643.31
2019-01-08T23:03:19.614Z,99648.22
2019-01-08T23:05:47.327Z,99648.22
2019-01-08T23:08:33.807Z,99641.63
2019-01-08T23:11:01.491Z,99636.80
2019-01-08T23:13:29.181Z,99642.37
2019-01-08T23:16:15.670Z,99625.42
2019-01-08T23:18:43.375Z,99625.42
2019-01-08T23:21:10.999Z,99628.98
2019-01-08T23:23:57.518Z,99629.47
2019-01-08T23:26:25.156Z,99618.91
2019-01-08T23:28:53.127Z,99618.91
2019-01-08T23:31:39.641Z,99616.73
2019-01-08T23:34:07.297Z,99616.73
2019-01-08T23:39:08.084Z,99619.37
2019-01-08T23:41:54.623Z,99623.33
2019-01-08T23:44:22.220Z,99622.95
2019-01-08T23:46:49.841Z,99622.95
2019-01-08T23:49:36.346Z,99622.88
2019-01-08T23:52:06.265Z,99615.41
2019-01-08T23:55:04.737Z,99621.17
